Time;durP1;ratioP1;P1;durP2;ratioP2;P2;SDS_P1;SDS_P2;PMS_P1;PMS_P2;Temp;Humidity;BMP_temperature;BMP_pressure;BME280_temperature;BME280_humidity;BME280_pressure;Samples;Min_cycle;Max_cycle;Signal;HPM_P1;HPM_P2
2022/09/15 00:00:28;;;;;;;3.05;2.60;;;13.80;99.90;;;;;;4917515;29;20079;-77
2022/09/15 00:02:55;;;;;;;3.28;2.60;;;13.80;99.90;;;;;;4901090;29;20562;-77
2022/09/15 00:05:22;;;;;;;6.85;2.95;;;13.90;99.90;;;;;;4886549;29;20056;-77
2022/09/15 00:08:14;;;;;;;3.63;2.88;;;13.90;99.90;;;;;;4946513;28;20061;-78
2022/09/15 00:10:54;;;;;;;2.53;2.33;;;14.00;99.90;;;;;;4956828;28;20460;-77
2022/09/15 00:13:21;;;;;;;4.32;2.80;;;14.00;99.90;;;;;;4957388;28;20057;-77
2022/09/15 00:15:47;;;;;;;5.85;3.22;;;14.10;99.90;;;;;;4957163;28;20090;-77
2022/09/15 00:18:13;;;;;;;4.95;2.95;;;14.10;99.90;;;;;;4956424;28;20046;-77
2022/09/15 00:20:48;;;;;;;4.55;2.42;;;14.20;99.90;;;;;;4942088;28;20047;-77
2022/09/15 00:23:38;;;;;;;4.45;2.78;;;14.30;99.90;;;;;;4959131;28;20102;-78
2022/09/15 00:26:09;;;;;;;9.00;3.33;;;14.40;99.90;;;;;;4956615;28;20050;-79
2022/09/15 00:28:36;;;;;;;4.68;3.03;;;14.40;99.90;;;;;;4972461;28;20057;-79
2022/09/15 00:31:23;;;;;;;5.00;3.20;;;14.50;99.90;;;;;;4972449;28;20089;-79
2022/09/15 00:33:53;;;;;;;3.63;2.60;;;14.60;99.90;;;;;;4970361;28;20453;-79
2022/09/15 00:36:21;;;;;;;4.00;2.78;;;14.50;99.90;;;;;;4955752;28;20130;-79
2022/09/15 00:39:09;;;;;;;8.48;3.33;;;14.50;99.90;;;;;;4940559;28;20047;-79
2022/09/15 00:41:36;;;;;;;4.88;3.13;;;14.50;99.90;;;;;;4972861;28;20039;-79
2022/09/15 00:44:26;;;;;;;3.08;2.67;;;14.50;99.90;;;;;;4924828;28;20054;-79
2022/09/15 00:46:56;;;;;;;6.38;2.97;;;14.50;99.90;;;;;;4963113;28;20134;-79
2022/09/15 00:49:33;;;;;;;4.55;3.13;;;14.50;99.90;;;;;;4940512;28;20428;-79
2022/09/15 00:52:38;;;;;;;5.60;2.15;;;14.50;99.90;;;;;;4956661;28;20090;-78
2022/09/15 00:55:53;;;;;;;5.93;3.10;;;14.60;99.90;;;;;;4950780;28;20063;-78
2022/09/15 00:58:43;;;;;;;3.92;2.85;;;14.60;99.90;;;;;;4940911;28;20102;-79
2022/09/15 01:01:19;;;;;;;4.45;1.95;;;14.60;99.90;;;;;;4951132;28;20391;-78
2022/09/15 01:03:45;;;;;;;5.35;2.20;;;14.60;99.90;;;;;;4973378;28;20066;-78
2022/09/15 01:06:25;;;;;;;4.72;2.50;;;14.60;99.90;;;;;;4939125;28;20396;-78
2022/09/15 01:09:24;;;;;;;3.13;2.30;;;14.60;99.90;;;;;;4956321;28;20062;-78
2022/09/15 01:11:58;;;;;;;2.70;1.98;;;14.60;99.90;;;;;;4971318;28;20065;-78
2022/09/15 01:14:24;;;;;;;3.60;2.30;;;14.60;99.90;;;;;;4955261;28;20050;-78
2022/09/15 01:17:19;;;;;;;3.20;2.10;;;14.60;99.90;;;;;;4956471;28;20125;-78
2022/09/15 01:20:12;;;;;;;4.30;2.22;;;14.60;99.90;;;;;;4970694;28;20068;-78
2022/09/15 01:22:38;;;;;;;3.42;2.10;;;14.50;99.90;;;;;;4956150;28;20042;-78
2022/09/15 01:25:46;;;;;;;6.05;2.15;;;14.50;99.90;;;;;;4956231;28;20050;-78
2022/09/15 01:28:59;;;;;;;2.70;2.03;;;14.60;99.90;;;;;;4956698;28;20093;-78
2022/09/15 01:34:40;;;;;;;4.43;2.05;;;14.60;99.90;;;;;;4976666;28;20051;-78
2022/09/15 01:37:13;;;;;;;4.38;1.90;;;14.50;99.90;;;;;;4939182;29;20070;-78
2022/09/15 01:39:51;;;;;;;3.50;2.08;;;14.50;99.90;;;;;;4955119;29;20047;-78
2022/09/15 01:42:32;;;;;;;4.53;1.90;;;14.50;99.90;;;;;;4938150;29;20058;-78
2022/09/15 01:45:17;;;;;;;4.20;2.40;;;14.50;99.90;;;;;;4955220;29;20089;-78
2022/09/15 01:47:45;;;;;;;2.28;1.80;;;14.50;99.90;;;;;;4939121;29;20051;-77
2022/09/15 01:50:27;;;;;;;4.32;2.30;;;14.50;99.90;;;;;;4954546;29;20058;-78
2022/09/15 01:53:03;;;;;;;5.20;2.00;;;14.50;99.90;;;;;;4939473;29;20105;-78
2022/09/15 01:56:07;;;;;;;5.50;2.15;;;14.40;99.90;;;;;;4938763;29;20159;-77
2022/09/15 01:58:33;;;;;;;4.10;1.75;;;14.50;99.90;;;;;;4921242;29;20067;-78
2022/09/15 02:01:25;;;;;;;2.58;2.15;;;14.50;99.90;;;;;;4938679;29;20055;-78
2022/09/15 02:03:56;;;;;;;5.53;2.35;;;14.40;99.90;;;;;;4954445;29;20063;-77
2022/09/15 02:06:44;;;;;;;5.80;2.17;;;14.40;99.90;;;;;;4922952;29;20039;-78
2022/09/15 02:09:21;;;;;;;3.92;2.90;;;14.40;99.90;;;;;;4955721;29;20155;-78
2022/09/15 02:12:06;;;;;;;5.28;1.95;;;14.40;99.90;;;;;;4955834;28;20051;-78
2022/09/15 02:14:43;;;;;;;3.63;2.22;;;14.40;99.90;;;;;;4939640;29;20051;-78
2022/09/15 02:17:15;;;;;;;3.88;2.25;;;14.30;99.90;;;;;;4957596;28;20066;-78
2022/09/15 02:19:52;;;;;;;5.32;2.42;;;14.40;99.90;;;;;;4941441;28;20059;-78
2022/09/15 02:22:33;;;;;;;2.65;2.10;;;14.30;99.90;;;;;;4941674;28;20093;-79
2022/09/15 02:25:24;;;;;;;7.60;2.20;;;14.30;99.90;;;;;;4957372;28;20043;-80
2022/09/15 02:27:55;;;;;;;4.22;2.42;;;14.40;99.90;;;;;;4957511;28;20495;-78
2022/09/15 02:30:21;;;;;;;2.85;1.80;;;14.40;99.90;;;;;;4941375;28;20047;-79
2022/09/15 02:33:02;;;;;;;7.30;1.90;;;14.40;99.90;;;;;;4941179;28;20063;-79
2022/09/15 02:35:49;;;;;;;5.82;1.35;;;14.40;99.90;;;;;;4956933;28;20598;-79
2022/09/15 02:38:16;;;;;;;10.32;2.47;;;14.40;99.90;;;;;;4940991;28;20051;-79
2022/09/15 02:40:43;;;;;;;4.57;1.50;;;14.40;99.90;;;;;;4941076;28;20043;-79
2022/09/15 02:43:15;;;;;;;3.63;1.40;;;14.40;99.90;;;;;;4939974;28;20073;-79
2022/09/15 02:45:48;;;;;;;6.47;1.20;;;14.40;99.90;;;;;;4972930;28;20184;-79
2022/09/15 02:48:15;;;;;;;4.22;1.33;;;14.40;99.90;;;;;;4954774;29;20067;-79
2022/09/15 02:50:50;;;;;;;3.85;1.52;;;14.50;99.90;;;;;;4923183;29;20110;-80
2022/09/15 02:53:22;;;;;;;4.90;1.75;;;14.40;99.90;;;;;;4970818;28;20547;-79
2022/09/15 02:55:54;;;;;;;9.93;1.50;;;14.40;99.90;;;;;;4923411;29;20055;-79
2022/09/15 02:58:21;;;;;;;6.63;1.40;;;14.40;99.90;;;;;;4971236;28;20071;-79
2022/09/15 03:00:49;;;;;;;2.42;1.10;;;14.40;99.90;;;;;;4923243;29;20054;-79
2022/09/15 03:03:17;;;;;;;2.25;1.27;;;14.40;99.90;;;;;;4929997;28;20113;-79
2022/09/15 03:05:43;;;;;;;2.10;1.23;;;14.40;99.90;;;;;;4957635;28;20050;-78
2022/09/15 03:08:16;;;;;;;6.93;1.60;;;14.40;99.90;;;;;;4957919;28;20047;-78
2022/09/15 03:10:45;;;;;;;3.80;1.50;;;14.40;99.90;;;;;;4956046;28;20124;-78
2022/09/15 03:13:13;;;;;;;4.32;1.40;;;14.40;99.90;;;;;;4926093;28;20488;-79
2022/09/15 03:15:48;;;;;;;3.22;1.10;;;14.30;99.90;;;;;;4957014;28;20050;-79
2022/09/15 03:18:14;;;;;;;2.38;1.20;;;14.40;99.90;;;;;;4957549;28;20058;-78
2022/09/15 03:20:41;;;;;;;3.97;1.10;;;14.30;99.90;;;;;;4940128;28;20073;-78
2022/09/15 03:23:13;;;;;;;1.88;1.35;;;14.30;99.90;;;;;;4957410;28;20059;-78
2022/09/15 03:25:46;;;;;;;1.95;1.05;;;14.30;99.90;;;;;;4957933;28;20043;-79
2022/09/15 03:28:23;;;;;;;2.33;1.30;;;14.40;99.90;;;;;;4941040;28;20065;-78
2022/09/15 03:30:48;;;;;;;1.33;1.08;;;14.40;99.90;;;;;;4957925;28;20061;-78
2022/09/15 03:33:23;;;;;;;3.80;0.90;;;14.30;99.90;;;;;;4925230;28;20047;-78
2022/09/15 03:35:52;;;;;;;3.92;1.33;;;14.40;99.90;;;;;;4926704;28;20126;-79
2022/09/15 03:38:18;;;;;;;3.45;1.30;;;14.40;99.90;;;;;;4941768;28;20101;-79
2022/09/15 03:41:02;;;;;;;3.70;1.08;;;14.40;99.90;;;;;;4973750;28;20054;-78
2022/09/15 03:43:30;;;;;;;4.85;1.42;;;14.40;99.90;;;;;;4957341;28;20082;-78
2022/09/15 03:45:56;;;;;;;2.30;1.23;;;14.40;99.90;;;;;;4941444;28;20109;-78
2022/09/15 03:48:30;;;;;;;;;;;14.40;99.90;;;;;;4956433;28;20491;-78
2022/09/15 03:50:56;;;;;;;1.80;1.17;;;14.40;99.90;;;;;;4957012;28;19922;-78
2022/09/15 03:53:22;;;;;;;5.45;1.15;;;14.40;99.90;;;;;;4957060;28;20049;-78
2022/09/15 03:55:49;;;;;;;3.15;1.38;;;14.40;99.90;;;;;;4956996;28;20046;-78
2022/09/15 03:58:16;;;;;;;2.40;1.25;;;14.40;99.90;;;;;;4957141;28;20057;-78
2022/09/15 04:00:42;;;;;;;4.95;1.10;;;14.40;99.90;;;;;;4956874;28;20078;-78
2022/09/15 04:03:08;;;;;;;4.30;1.42;;;14.40;99.90;;;;;;4956653;28;20065;-78
2022/09/15 04:05:42;;;;;;;3.33;1.15;;;14.30;99.90;;;;;;4956757;28;20050;-78
2022/09/15 04:08:12;;;;;;;6.57;1.67;;;14.40;99.90;;;;;;4973178;28;20395;-78
2022/09/15 04:10:38;;;;;;;4.72;1.45;;;14.30;99.90;;;;;;4956615;28;20047;-78
2022/09/15 04:13:04;;;;;;;4.50;1.77;;;14.40;99.90;;;;;;4940576;28;20146;-77
2022/09/15 04:15:29;;;;;;;5.22;1.45;;;14.40;99.90;;;;;;4924902;28;20086;-78
2022/09/15 04:17:55;;;;;;;1.42;1.08;;;14.30;99.90;;;;;;4972894;28;20547;-79
2022/09/15 04:20:21;;;;;;;6.28;1.40;;;14.30;99.90;;;;;;4956690;28;20365;-78
2022/09/15 04:22:49;;;;;;;5.25;2.20;;;14.30;99.90;;;;;;4970511;28;20058;-78
2022/09/15 04:25:26;;;;;;;3.75;1.23;;;14.30;99.90;;;;;;4941351;28;20134;-78
2022/09/15 04:27:58;;;;;;;2.72;1.35;;;14.30;99.90;;;;;;4957056;28;20043;-78
2022/09/15 04:30:35;;;;;;;2.05;1.27;;;14.20;99.90;;;;;;4971192;28;20125;-78
2022/09/15 04:33:10;;;;;;;4.85;2.03;;;14.20;99.90;;;;;;4972857;28;20051;-78
2022/09/15 04:35:36;;;;;;;2.78;1.75;;;14.20;99.90;;;;;;4940387;28;20063;-78
2022/09/15 04:38:10;;;;;;;1.92;1.20;;;14.20;99.90;;;;;;4956614;28;20509;-78
2022/09/15 04:40:36;;;;;;;5.78;1.63;;;14.20;99.90;;;;;;4940526;28;20046;-78
2022/09/15 04:43:12;;;;;;;1.67;0.77;;;14.10;99.90;;;;;;4972337;28;20092;-78
2022/09/15 04:45:38;;;;;;;3.38;1.05;;;14.00;99.90;;;;;;4938531;28;20619;-79
2022/09/15 04:48:05;;;;;;;3.83;1.25;;;14.00;99.90;;;;;;4956295;28;20043;-77
2022/09/15 04:50:32;;;;;;;5.60;1.88;;;14.00;99.90;;;;;;4940172;28;20067;-78
2022/09/15 04:53:14;;;;;;;4.30;1.35;;;14.00;99.90;;;;;;4940389;28;20078;-77
2022/09/15 04:55:41;;;;;;;5.43;1.40;;;14.00;99.90;;;;;;4954073;28;20057;-78
2022/09/15 04:58:06;;;;;;;2.72;1.30;;;14.00;99.90;;;;;;4956508;28;20082;-77
2022/09/15 05:00:45;;;;;;;4.10;1.92;;;14.00;99.90;;;;;;4972982;28;20133;-78
2022/09/15 05:03:19;;;;;;;3.65;1.38;;;13.80;99.90;;;;;;4952527;29;20114;-76
2022/09/15 05:05:51;;;;;;;4.70;1.15;;;14.10;99.90;;;;;;4924291;29;20056;-78
2022/09/15 05:08:25;;;;;;;4.00;1.48;;;14.10;99.90;;;;;;4972742;28;20431;-78
2022/09/15 05:10:57;;;;;;;5.03;1.35;;;13.70;99.90;;;;;;4941836;29;20432;-77
2022/09/15 05:13:23;;;;;;;6.35;2.20;;;14.10;99.90;;;;;;4972307;28;20063;-77
2022/09/15 05:16:08;;;;;;;6.13;1.35;;;14.10;99.90;;;;;;4941931;29;20118;-79
2022/09/15 05:18:36;;;;;;;2.10;1.40;;;14.10;99.90;;;;;;4924521;29;20501;-79
2022/09/15 05:21:03;;;;;;;5.40;1.70;;;14.10;99.90;;;;;;4972550;28;20490;-78
2022/09/15 05:23:30;;;;;;;7.57;1.63;;;14.10;99.90;;;;;;4955875;29;20079;-78
2022/09/15 05:25:58;;;;;;;3.13;1.42;;;14.10;99.90;;;;;;4940866;29;20093;-76
2022/09/15 05:28:35;;;;;;;6.55;1.30;;;14.10;99.90;;;;;;4956344;29;20400;-77
2022/09/15 05:31:10;;;;;;;3.00;1.25;;;14.00;99.90;;;;;;4972487;28;20055;-76
2022/09/15 05:33:37;;;;;;;3.95;1.50;;;14.00;99.90;;;;;;4957332;29;20110;-76
2022/09/15 05:36:18;;;;;;;5.45;1.58;;;14.00;99.90;;;;;;4941828;29;20054;-77
2022/09/15 05:38:44;;;;;;;2.63;1.52;;;13.90;99.90;;;;;;4955861;29;20501;-76
2022/09/15 05:41:21;;;;;;;3.38;1.48;;;13.90;99.90;;;;;;4957449;29;20111;-77
2022/09/15 05:43:51;;;;;;;4.45;1.30;;;13.80;99.90;;;;;;4956132;29;20130;-77
2022/09/15 05:46:18;;;;;;;2.88;1.23;;;13.80;99.90;;;;;;4955975;29;20086;-76
2022/09/15 05:48:44;;;;;;;5.65;1.38;;;13.80;99.90;;;;;;4939201;29;20091;-76
2022/09/15 05:51:10;;;;;;;5.38;1.95;;;13.80;99.90;;;;;;4923500;29;20047;-76
2022/09/15 05:54:09;;;;;;;4.40;1.58;;;13.80;99.90;;;;;;4940223;29;20082;-76
2022/09/15 05:56:34;;;;;;;2.72;1.27;;;13.90;99.90;;;;;;4924649;29;20050;-76
2022/09/15 05:59:01;;;;;;;6.30;1.35;;;13.90;99.90;;;;;;4971824;28;20055;-76
2022/09/15 06:01:29;;;;;;;3.00;2.08;;;14.00;99.90;;;;;;4924007;29;20122;-76
2022/09/15 06:03:56;;;;;;;5.13;1.80;;;14.00;99.90;;;;;;4939899;29;20055;-76
2022/09/15 06:06:25;;;;;;;3.50;1.55;;;14.10;99.90;;;;;;4956358;29;20167;-76
2022/09/15 06:08:54;;;;;;;2.97;1.58;;;14.10;99.90;;;;;;4955225;29;20047;-76
2022/09/15 06:11:35;;;;;;;4.85;1.30;;;14.10;99.90;;;;;;4956043;29;20441;-76
2022/09/15 06:14:04;;;;;;;3.47;1.85;;;14.20;99.90;;;;;;4939522;29;20055;-76
2022/09/15 06:16:34;;;;;;;6.32;1.58;;;14.20;99.90;;;;;;4954871;29;20058;-76
2022/09/15 06:19:02;;;;;;;3.88;2.38;;;14.30;99.90;;;;;;4956019;28;20094;-76
2022/09/15 06:21:36;;;;;;;5.18;1.80;;;14.30;99.90;;;;;;4923571;29;20043;-76
2022/09/15 06:24:05;;;;;;;4.80;1.55;;;14.30;99.90;;;;;;4955709;28;20138;-76
2022/09/15 06:26:38;;;;;;;2.28;1.27;;;14.40;99.90;;;;;;4956516;28;20101;-75
2022/09/15 06:29:04;;;;;;;6.57;1.85;;;14.50;99.90;;;;;;4923497;29;20382;-76
2022/09/15 06:31:32;;;;;;;5.38;1.80;;;14.60;99.90;;;;;;4956231;29;20039;-76
2022/09/15 06:33:59;;;;;;;4.93;1.35;;;14.70;99.90;;;;;;4939670;29;20055;-76
2022/09/15 06:36:27;;;;;;;4.65;1.30;;;14.70;99.90;;;;;;4923405;29;20225;-76
2022/09/15 06:38:55;;;;;;;6.22;1.50;;;14.80;99.90;;;;;;4955226;28;20134;-76
2022/09/15 06:41:20;;;;;;;5.70;1.20;;;14.90;99.90;;;;;;4955114;28;20043;-76
2022/09/15 06:43:52;;;;;;;5.47;1.58;;;14.90;99.90;;;;;;4923828;29;20085;-76
2022/09/15 06:46:21;;;;;;;6.28;1.33;;;15.00;99.90;;;;;;4955186;29;20130;-76
2022/09/15 06:48:47;;;;;;;7.78;1.92;;;15.10;99.90;;;;;;4955489;29;20055;-76
2022/09/15 06:51:15;;;;;;;3.90;1.23;;;15.20;99.90;;;;;;4971007;28;20055;-76
2022/09/15 06:53:42;;;;;;;4.70;1.50;;;15.20;99.90;;;;;;4954918;29;20091;-76
2022/09/15 06:56:18;;;;;;;2.67;1.40;;;15.30;99.90;;;;;;4970764;28;20126;-76
2022/09/15 06:58:55;;;;;;;2.45;1.50;;;15.40;99.90;;;;;;4954956;29;20059;-76
2022/09/15 07:01:33;;;;;;;4.63;1.48;;;15.40;99.90;;;;;;4955020;29;20178;-76
2022/09/15 07:04:02;;;;;;;5.90;1.50;;;15.50;99.90;;;;;;4930752;29;20118;-76
2022/09/15 07:06:37;;;;;;;4.00;1.20;;;15.50;99.90;;;;;;4954138;29;20462;-74
2022/09/15 07:09:05;;;;;;;3.08;1.08;;;15.60;99.90;;;;;;4923697;29;20063;-74
2022/09/15 07:11:32;;;;;;;6.82;1.52;;;15.80;99.90;;;;;;4954634;29;20054;-76
2022/09/15 07:13:59;;;;;;;5.93;1.80;;;15.90;99.90;;;;;;4954681;29;20139;-76
2022/09/15 07:16:32;;;;;;;2.72;1.42;;;16.00;99.90;;;;;;4938393;29;20149;-76
2022/09/15 07:19:02;;;;;;;3.85;1.30;;;16.10;99.90;;;;;;4937818;29;20484;-76
2022/09/15 07:21:27;;;;;;;7.95;2.35;;;16.10;99.90;;;;;;4954116;29;20527;-76
2022/09/15 07:23:58;;;;;;;4.18;1.60;;;16.20;99.90;;;;;;4922508;29;20043;-76
2022/09/15 07:26:27;;;;;;;3.10;1.10;;;16.40;99.90;;;;;;4954974;29;20051;-76
2022/09/15 07:28:58;;;;;;;2.92;1.38;;;16.70;99.90;;;;;;4922049;29;20051;-76
2022/09/15 07:31:28;;;;;;;4.40;1.65;;;16.90;99.90;;;;;;4954529;29;20146;-76
2022/09/15 07:33:54;;;;;;;2.78;1.17;;;17.00;99.90;;;;;;4954771;29;20051;-76
2022/09/15 07:36:21;;;;;;;4.78;1.40;;;17.20;99.90;;;;;;4922358;29;20057;-76
2022/09/15 07:38:59;;;;;;;5.78;1.35;;;17.30;99.90;;;;;;4954144;29;20110;-76
2022/09/15 07:41:34;;;;;;;3.33;1.52;;;17.40;99.90;;;;;;4922213;29;20051;-77
2022/09/15 07:44:01;;;;;;;3.00;1.58;;;17.50;99.90;;;;;;4970288;28;20525;-76
2022/09/15 07:46:37;;;;;;;2.40;1.17;;;17.50;99.90;;;;;;4922095;29;20130;-76
2022/09/15 07:49:19;;;;;;;2.78;1.20;;;17.70;99.90;;;;;;4939413;29;20098;-76
2022/09/15 07:51:46;;;;;;;3.47;1.25;;;17.80;99.90;;;;;;4953713;29;20055;-76
2022/09/15 07:54:12;;;;;;;6.35;1.30;;;17.80;99.90;;;;;;4922109;29;20551;-77
2022/09/15 07:56:41;;;;;;;4.13;1.20;;;17.70;99.90;;;;;;4954260;29;20063;-77
2022/09/15 07:59:15;;;;;;;2.67;1.13;;;17.60;99.90;;;;;;4939882;28;20155;-76
2022/09/15 08:01:42;;;;;;;2.25;1.13;;;17.50;99.90;;;;;;4937788;29;20098;-77
2022/09/15 08:04:16;;;;;;;2.47;0.90;;;17.50;99.90;;;;;;4931194;29;20059;-77
2022/09/15 08:06:43;;;;;;;6.00;1.42;;;17.30;99.90;;;;;;4970434;28;20055;-76
2022/09/15 08:09:27;;;;;;;2.53;1.05;;;17.20;99.90;;;;;;4954019;28;20127;-77
2022/09/15 08:11:53;;;;;;;2.38;1.30;;;17.00;99.90;;;;;;4922192;29;20067;-76
2022/09/15 08:14:20;;;;;;;2.22;1.00;;;16.90;99.90;;;;;;4937698;29;20478;-76
2022/09/15 08:16:49;;;;;;;2.83;1.00;;;16.80;99.90;;;;;;4938471;29;20086;-76
2022/09/15 08:19:14;;;;;;;3.75;1.33;;;16.80;99.90;;;;;;4937979;29;20070;-76
2022/09/15 08:22:09;;;;;;;2.38;1.48;;;16.70;99.90;;;;;;4938144;29;20051;-76
2022/09/15 08:24:36;;;;;;;3.83;1.60;;;16.70;99.90;;;;;;4953147;29;20118;-76
2022/09/15 08:27:04;;;;;;;7.15;1.25;;;16.90;99.90;;;;;;4937632;29;20054;-76
2022/09/15 08:29:42;;;;;;;5.05;1.42;;;17.20;99.90;;;;;;4937588;29;20474;-76
2022/09/15 08:32:11;;;;;;;4.43;1.40;;;17.30;99.90;;;;;;4953794;29;20062;-76
2022/09/15 08:35:01;;;;;;;2.53;1.10;;;17.40;99.90;;;;;;4940150;29;20113;-76
2022/09/15 08:37:34;;;;;;;2.22;1.20;;;17.60;99.90;;;;;;4938246;29;20483;-76
2022/09/15 08:40:02;;;;;;;3.63;1.02;;;17.80;99.90;;;;;;4937399;28;20051;-76
2022/09/15 08:42:52;;;;;;;5.28;1.60;;;18.50;99.90;;;;;;4926431;29;20142;-76
2022/09/15 08:45:24;;;;;;;5.18;1.23;;;19.00;98.60;;;;;;4957080;29;20125;-76
2022/09/15 08:48:07;;;;;;;2.72;1.27;;;19.10;97.80;;;;;;4941424;29;20055;-76
2022/09/15 08:50:44;;;;;;;2.10;0.85;;;19.10;99.00;;;;;;4955890;29;20059;-76
2022/09/15 08:53:18;;;;;;;2.05;1.35;;;19.00;97.30;;;;;;4957304;29;20089;-76
2022/09/15 08:56:10;;;;;;;1.45;1.02;;;18.70;98.80;;;;;;4957021;29;20487;-76
2022/09/15 08:58:44;;;;;;;3.00;1.10;;;18.50;98.40;;;;;;4956768;29;20059;-77
2022/09/15 09:01:10;;;;;;;2.72;1.25;;;18.40;99.60;;;;;;4956836;29;20047;-76
2022/09/15 09:04:00;;;;;;;2.72;1.13;;;18.40;99.80;;;;;;4971711;28;20138;-77
2022/09/15 09:07:00;;;;;;;3.90;1.20;;;18.40;99.10;;;;;;4957337;29;20057;-76
2022/09/15 09:09:54;;;;;;;2.22;1.10;;;18.60;98.60;;;;;;4956977;29;20051;-76
2022/09/15 09:12:28;;;;;;;2.38;1.20;;;18.50;99.20;;;;;;4956961;28;20099;-77
2022/09/15 09:15:24;;;;;;;3.20;1.33;;;18.40;98.90;;;;;;4940896;29;20039;-76
2022/09/15 09:18:06;;;;;;;3.55;1.55;;;18.20;98.70;;;;;;4972269;28;20055;-76
2022/09/15 09:20:56;;;;;;;6.10;2.45;;;18.10;98.80;;;;;;4956630;29;20050;-77
2022/09/15 09:23:32;;;;;;;3.60;1.48;;;17.90;99.90;;;;;;4957181;29;20122;-77
2022/09/15 09:26:00;;;;;;;2.85;2.05;;;17.70;99.90;;;;;;4925739;29;20047;-77
2022/09/15 09:28:51;;;;;;;2.13;1.05;;;17.50;99.90;;;;;;4956270;29;20038;-77
2022/09/15 09:31:22;;;;;;;1.95;1.13;;;17.30;99.90;;;;;;4972744;28;20066;-76
2022/09/15 09:34:13;;;;;;;4.45;1.52;;;17.30;99.90;;;;;;4956408;29;20089;-76
2022/09/15 09:36:41;;;;;;;3.00;1.30;;;17.30;99.90;;;;;;4956362;29;20516;-77
2022/09/15 09:39:15;;;;;;;2.17;1.30;;;17.40;99.90;;;;;;4924866;29;20055;-77
2022/09/15 09:41:55;;;;;;;4.22;1.58;;;17.50;99.90;;;;;;4956158;29;20402;-76
2022/09/15 09:44:30;;;;;;;5.68;1.23;;;17.60;99.90;;;;;;4956159;29;20055;-77
2022/09/15 09:47:09;;;;;;;4.22;1.45;;;17.80;99.90;;;;;;4956333;28;20622;-77
2022/09/15 09:50:06;;;;;;;2.47;1.17;;;17.60;99.90;;;;;;4956398;29;20106;-77
2022/09/15 09:52:37;;;;;;;3.55;1.60;;;17.60;99.90;;;;;;4955511;28;20110;-76
2022/09/15 09:55:21;;;;;;;3.95;1.48;;;17.70;99.90;;;;;;4954875;29;20069;-76
2022/09/15 09:57:47;;;;;;;6.13;1.75;;;17.70;99.90;;;;;;4956107;29;20097;-76
2022/09/15 10:00:33;;;;;;;4.75;1.35;;;17.70;99.90;;;;;;4955514;28;20047;-77
2022/09/15 10:03:27;;;;;;;3.45;1.60;;;17.70;99.90;;;;;;4956454;28;20055;-78
2022/09/15 10:06:32;;;;;;;2.88;1.38;;;17.40;99.90;;;;;;4958903;28;20054;-80
2022/09/15 10:09:19;;;;;;;1.95;0.98;;;16.90;99.90;;;;;;4958572;28;20047;-78
2022/09/15 10:11:46;;;;;;;5.25;1.65;;;16.70;99.90;;;;;;4942971;28;20090;-79
2022/09/15 10:14:36;;;;;;;2.95;1.55;;;16.50;99.90;;;;;;4958516;28;20542;-78
2022/09/15 10:17:25;;;;;;;1.75;0.80;;;16.80;99.90;;;;;;4942699;28;20400;-79
2022/09/15 10:19:53;;;;;;;1.17;1.02;;;17.30;99.90;;;;;;4954784;28;20498;-78
2022/09/15 10:22:40;;;;;;;1.33;0.90;;;18.50;99.90;;;;;;4958881;28;20412;-79
2022/09/15 10:25:39;;;;;;;3.95;0.90;;;20.50;99.90;;;;;;4958528;28;20058;-77
2022/09/15 10:28:17;;;;;;;2.13;0.80;;;21.00;99.30;;;;;;4958581;28;20460;-77
2022/09/15 10:31:04;;;;;;;2.30;1.02;;;22.30;96.80;;;;;;4958272;28;20050;-78
2022/09/15 10:33:42;;;;;;;1.70;0.73;;;23.40;93.90;;;;;;4975744;28;20057;-78
2022/09/15 10:36:33;;;;;;;3.08;1.00;;;23.80;93.20;;;;;;4975473;28;20058;-77
2022/09/15 10:39:35;;;;;;;2.33;0.90;;;24.30;90.80;;;;;;4974097;28;20070;-77
2022/09/15 10:42:09;;;;;;;;;;;23.80;91.20;;;;;;4958766;28;20117;-77
2022/09/15 10:45:10;;;;;;;2.00;1.02;;;22.90;91.50;;;;;;4958287;28;19988;-77
2022/09/15 10:47:47;;;;;;;3.92;1.10;;;22.20;93.70;;;;;;4957948;28;20062;-77
2022/09/15 10:50:23;;;;;;;1.52;1.02;;;21.70;94.00;;;;;;4958104;28;20400;-78
2022/09/15 10:53:04;;;;;;;4.10;1.55;;;21.30;94.70;;;;;;4957939;28;20053;-77
2022/09/15 10:56:08;;;;;;;3.10;0.90;;;20.90;95.00;;;;;;4958192;28;20043;-77
2022/09/15 10:59:02;;;;;;;3.85;1.85;;;20.40;92.70;;;;;;4957424;28;20049;-78
2022/09/15 11:02:10;;;;;;;3.35;1.00;;;19.60;95.90;;;;;;4957535;28;20114;-78
2022/09/15 11:05:33;;;;;;;2.92;0.93;;;18.70;96.90;;;;;;4938369;28;20060;-77
2022/09/15 11:08:40;;;;;;;1.67;0.85;;;18.20;98.10;;;;;;4956841;28;20055;-79
2022/09/15 11:11:30;;;;;;;2.42;1.40;;;18.00;98.20;;;;;;4957724;28;20050;-77
2022/09/15 11:14:17;;;;;;;2.50;1.10;;;17.90;98.50;;;;;;4958362;28;20109;-77
2022/09/15 11:16:54;;;;;;;2.70;1.00;;;17.80;99.20;;;;;;4957675;28;20103;-77
2022/09/15 11:19:52;;;;;;;4.68;0.90;;;17.90;99.20;;;;;;4957905;28;20059;-78
2022/09/15 11:22:24;;;;;;;3.78;1.00;;;18.00;98.60;;;;;;4957822;28;20069;-76
2022/09/15 11:25:05;;;;;;;2.53;0.75;;;18.10;98.20;;;;;;5060097;28;21505;-77
2022/09/15 11:27:38;;;;;;;1.52;0.50;;;18.30;98.40;;;;;;5054711;28;20408;-78
2022/09/15 11:30:19;;;;;;;2.15;0.50;;;18.50;98.10;;;;;;5053743;28;20080;-78
2022/09/15 11:33:06;;;;;;;1.00;0.95;;;18.60;95.70;;;;;;5056102;28;20086;-76
2022/09/15 11:35:50;;;;;;;2.75;1.00;;;18.80;95.50;;;;;;5055619;28;20076;-76
2022/09/15 11:38:46;;;;;;;0.55;0.50;;;19.00;95.70;;;;;;5055207;28;20049;-77
2022/09/15 11:41:17;;;;;;;0.40;0.40;;;19.10;95.70;;;;;;5054865;28;20114;-77
2022/09/15 11:43:54;;;;;;;1.65;0.63;;;19.10;94.70;;;;;;5055025;28;20049;-77
2022/09/15 11:46:30;;;;;;;0.98;0.55;;;19.20;96.30;;;;;;5056367;28;20171;-77
2022/09/15 11:49:12;;;;;;;3.25;1.08;;;19.20;95.30;;;;;;5055265;28;20064;-78
2022/09/15 11:51:43;;;;;;;1.30;0.77;;;19.40;95.30;;;;;;5047769;28;20671;-77
2022/09/15 11:54:33;;;;;;;1.95;1.00;;;19.40;94.90;;;;;;5053368;28;20095;-76
2022/09/15 11:56:59;;;;;;;2.20;0.70;;;19.40;93.30;;;;;;5054043;28;20500;-77
2022/09/15 11:59:51;;;;;;;1.42;0.90;;;19.40;94.90;;;;;;5054026;28;20190;-76
2022/09/15 12:02:27;;;;;;;1.20;0.80;;;19.40;94.50;;;;;;5047169;28;20139;-77
2022/09/15 12:05:16;;;;;;;2.90;1.15;;;19.30;93.80;;;;;;5053126;28;20736;-77
2022/09/15 12:07:56;;;;;;;4.18;1.05;;;19.10;93.90;;;;;;5048032;28;20044;-77
2022/09/15 12:10:40;;;;;;;2.90;1.60;;;19.00;93.60;;;;;;5050761;28;20045;-77
2022/09/15 12:13:09;;;;;;;1.27;0.73;;;18.80;93.60;;;;;;5054800;28;20503;-76
2022/09/15 12:15:36;;;;;;;1.20;0.82;;;19.00;94.60;;;;;;5054011;28;20040;-76
2022/09/15 12:18:36;;;;;;;2.58;0.80;;;19.10;94.00;;;;;;5053718;28;20040;-79
2022/09/15 12:21:33;;;;;;;11.55;1.17;;;19.00;93.30;;;;;;5054350;28;20087;-77
2022/09/15 12:24:05;;;;;;;1.85;0.85;;;19.00;93.70;;;;;;5037473;28;20097;-78
2022/09/15 12:26:32;;;;;;;2.03;1.00;;;19.00;94.00;;;;;;5051010;28;20130;-77
2022/09/15 12:29:03;;;;;;;3.17;1.23;;;19.00;94.50;;;;;;5049867;28;20053;-77
2022/09/15 12:31:36;;;;;;;1.17;0.80;;;18.90;95.10;;;;;;5050165;28;20686;-78
2022/09/15 12:34:23;;;;;;;2.53;1.98;;;18.60;95.20;;;;;;5052149;28;20552;-78
2022/09/15 12:36:52;;;;;;;3.50;0.93;;;18.30;95.70;;;;;;5037370;28;20080;-76
2022/09/15 12:39:21;;;;;;;3.25;0.90;;;18.20;95.50;;;;;;5038354;28;20098;-76
2022/09/15 12:42:06;;;;;;;3.03;1.15;;;18.40;95.20;;;;;;5036370;28;20571;-76
2022/09/15 12:44:43;;;;;;;2.63;0.93;;;18.40;95.10;;;;;;5035665;28;20045;-77
2022/09/15 12:47:40;;;;;;;1.98;1.20;;;18.50;94.90;;;;;;5037984;28;20096;-75
2022/09/15 12:50:14;;;;;;;1.80;0.77;;;18.60;95.10;;;;;;5033143;28;20096;-75
2022/09/15 12:52:50;;;;;;;3.60;1.40;;;18.80;94.80;;;;;;5037672;28;20045;-77
2022/09/15 12:55:26;;;;;;;2.38;0.70;;;18.90;93.50;;;;;;5038941;28;20072;-76
2022/09/15 12:57:58;;;;;;;1.00;0.68;;;18.80;91.90;;;;;;5035789;28;20319;-78
2022/09/15 13:00:42;;;;;;;2.72;1.33;;;18.80;93.00;;;;;;5037896;28;20092;-78
2022/09/15 13:03:25;;;;;;;;;;;19.00;92.60;;;;;;5021687;28;20071;-78
2022/09/15 13:06:13;;;;;;;2.58;0.77;;;19.10;93.60;;;;;;5038209;28;19934;-79
2022/09/15 13:09:02;;;;;;;1.23;1.10;;;19.10;93.20;;;;;;5032477;28;20089;-81
2022/09/15 13:11:36;;;;;;;2.13;1.23;;;18.90;92.60;;;;;;5036510;28;20048;-78
2022/09/15 13:14:02;;;;;;;1.88;0.73;;;18.80;93.60;;;;;;5036328;28;20049;-77
2022/09/15 13:16:39;;;;;;;3.03;1.35;;;18.70;94.40;;;;;;5034514;28;20173;-77
2022/09/15 13:19:07;;;;;;;2.33;1.20;;;18.80;94.60;;;;;;5035635;28;20759;-76
2022/09/15 13:21:36;;;;;;;2.92;1.00;;;18.80;94.60;;;;;;5035816;28;20044;-78
2022/09/15 13:24:06;;;;;;;2.90;1.00;;;18.90;94.90;;;;;;5035296;28;20709;-77
2022/09/15 13:26:34;;;;;;;1.00;0.75;;;18.90;94.30;;;;;;5035721;28;20044;-76
2022/09/15 13:29:01;;;;;;;2.65;0.60;;;19.00;94.50;;;;;;5033489;28;20041;-76
2022/09/15 13:31:42;;;;;;;5.32;1.38;;;19.10;94.60;;;;;;5037539;28;20057;-76
2022/09/15 13:34:36;;;;;;;1.10;0.88;;;19.10;93.80;;;;;;5037145;28;20048;-76
2022/09/15 13:37:33;;;;;;;2.95;0.95;;;19.10;93.90;;;;;;5036120;28;20112;-76